Time;durP1;ratioP1;P1;durP2;ratioP2;P2;SDS_P1;SDS_P2;PMS_P1;PMS_P2;Temp;Humidity;BMP_temperature;BMP_pressure;BME280_temperature;BME280_humidity;BME280_pressure;Samples;Min_cycle;Max_cycle;Signal;HPM_P1;HPM_P2
2023/09/27 00:01:21;;;;;;;1.65;1.55;;;15.10;99.90;;;;;;4971600;28;20522;-88
2023/09/27 00:03:47;;;;;;;1.42;1.38;;;15.10;99.90;;;;;;4967804;28;20054;-87
2023/09/27 00:06:13;;;;;;;1.60;1.50;;;15.40;99.90;;;;;;4967203;28;20050;-88
2023/09/27 00:08:38;;;;;;;1.58;1.48;;;15.20;99.90;;;;;;4973984;28;20044;-89
2023/09/27 00:11:04;;;;;;;1.58;1.48;;;15.20;99.90;;;;;;4952275;28;20042;-87
2023/09/27 00:13:30;;;;;;;1.63;1.52;;;15.30;99.90;;;;;;4962419;28;20054;-88
2023/09/27 00:15:55;;;;;;;1.55;1.45;;;15.40;99.90;;;;;;4953261;28;20771;-88
2023/09/27 00:18:21;;;;;;;1.58;1.48;;;15.40;99.90;;;;;;4971776;28;20054;-88
2023/09/27 00:20:47;;;;;;;1.65;1.55;;;15.30;99.90;;;;;;4973089;28;20107;-88
2023/09/27 00:23:12;;;;;;;1.67;1.58;;;15.20;99.90;;;;;;4955448;28;20053;-88
2023/09/27 00:25:38;;;;;;;1.67;1.58;;;15.30;99.90;;;;;;4961281;28;20492;-87
2023/09/27 00:28:05;;;;;;;1.65;1.55;;;15.10;99.90;;;;;;4966821;28;20038;-88
2023/09/27 00:30:31;;;;;;;1.63;1.52;;;15.30;99.90;;;;;;4969203;28;20481;-88
2023/09/27 00:32:56;;;;;;;1.60;1.50;;;15.30;99.90;;;;;;4954979;28;20082;-88
2023/09/27 00:35:22;;;;;;;1.60;1.50;;;15.20;99.90;;;;;;4966557;28;20567;-89
2023/09/27 00:37:49;;;;;;;1.67;1.58;;;15.10;99.90;;;;;;4976756;28;20567;-88
2023/09/27 00:40:21;;;;;;;1.73;1.63;;;15.20;99.90;;;;;;4971219;28;20057;-88
2023/09/27 00:42:47;;;;;;;1.70;1.60;;;15.20;99.90;;;;;;4976154;28;20080;-90
2023/09/27 00:45:13;;;;;;;1.70;1.60;;;15.10;99.90;;;;;;4967266;28;20045;-88
2023/09/27 00:47:39;;;;;;;1.60;1.50;;;15.30;99.90;;;;;;4968832;28;20092;-88
2023/09/27 00:50:08;;;;;;;1.65;1.55;;;15.20;99.90;;;;;;4971851;28;20105;-87
2023/09/27 00:52:36;;;;;;;1.85;1.75;;;15.20;99.90;;;;;;4971675;28;20077;-87
2023/09/27 00:55:02;;;;;;;1.98;1.88;;;15.00;99.90;;;;;;4954831;28;20096;-88
2023/09/27 00:57:28;;;;;;;1.63;1.52;;;14.90;99.90;;;;;;4971564;28;20046;-87
2023/09/27 00:59:54;;;;;;;1.90;1.80;;;14.90;99.90;;;;;;4951344;28;20057;-87
2023/09/27 01:02:20;;;;;;;1.60;1.50;;;15.10;99.90;;;;;;4958911;28;20046;-87
2023/09/27 01:04:45;;;;;;;1.75;1.65;;;15.00;99.90;;;;;;4964582;28;20057;-86
2023/09/27 01:07:11;;;;;;;1.70;1.60;;;15.20;99.90;;;;;;4968803;28;20144;-87
2023/09/27 01:09:38;;;;;;;1.90;1.80;;;15.00;99.90;;;;;;4970090;28;20802;-87
2023/09/27 01:12:04;;;;;;;1.80;1.70;;;15.10;99.90;;;;;;4969684;28;20514;-85
2023/09/27 01:14:30;;;;;;;1.73;1.63;;;15.00;99.90;;;;;;4967406;28;20374;-88
2023/09/27 01:17:06;;;;;;;1.85;1.75;;;15.20;99.90;;;;;;4965626;28;20521;-88
2023/09/27 01:19:33;;;;;;;1.70;1.60;;;15.10;99.90;;;;;;4969279;28;20531;-86
2023/09/27 01:21:59;;;;;;;1.92;1.83;;;15.00;99.90;;;;;;4973218;28;20037;-87
2023/09/27 01:24:26;;;;;;;1.70;1.60;;;15.00;99.90;;;;;;4960355;28;20053;-87
2023/09/27 01:26:53;;;;;;;1.90;1.80;;;15.00;99.90;;;;;;4976282;28;20135;-87
2023/09/27 01:29:18;;;;;;;2.00;1.90;;;15.00;99.90;;;;;;4952842;28;20121;-86
2023/09/27 01:31:44;;;;;;;1.88;1.77;;;14.90;99.90;;;;;;4969548;28;20164;-88
2023/09/27 01:34:09;;;;;;;2.00;1.90;;;14.90;99.90;;;;;;4972506;28;20116;-87
2023/09/27 01:36:35;;;;;;;2.25;2.15;;;15.10;99.90;;;;;;4962984;28;20443;-87
2023/09/27 01:39:03;;;;;;;2.00;1.90;;;15.00;99.90;;;;;;4969473;28;20038;-87
2023/09/27 01:41:28;;;;;;;2.00;1.90;;;15.00;99.90;;;;;;4967145;28;20406;-87
2023/09/27 01:43:54;;;;;;;2.10;2.00;;;15.00;99.90;;;;;;4968699;28;20050;-88
2023/09/27 01:46:19;;;;;;;2.00;1.90;;;15.00;99.90;;;;;;4977367;28;20049;-87
2023/09/27 01:48:45;;;;;;;2.08;1.98;;;15.00;99.90;;;;;;4967702;28;20047;-88
2023/09/27 01:51:14;;;;;;;2.10;2.00;;;15.10;99.90;;;;;;4959918;28;20052;-88
2023/09/27 01:53:40;;;;;;;2.08;1.98;;;15.10;99.90;;;;;;4965136;28;20054;-87
2023/09/27 01:56:06;;;;;;;2.10;2.00;;;15.10;99.90;;;;;;4960642;28;20112;-88
2023/09/27 01:58:32;;;;;;;2.03;1.92;;;15.00;99.90;;;;;;4972104;28;20050;-88
2023/09/27 02:00:58;;;;;;;2.00;1.90;;;15.00;99.90;;;;;;4966189;28;20061;-88
2023/09/27 02:03:24;;;;;;;2.20;2.10;;;15.00;99.90;;;;;;4957260;28;20053;-87
2023/09/27 02:05:52;;;;;;;2.10;2.00;;;14.80;99.90;;;;;;4967909;28;20046;-87
2023/09/27 02:08:17;;;;;;;2.10;2.00;;;14.90;99.90;;;;;;4970956;28;20045;-86
2023/09/27 02:10:43;;;;;;;2.17;2.08;;;14.70;99.90;;;;;;4976856;28;20462;-88
2023/09/27 02:13:09;;;;;;;2.10;2.00;;;14.70;99.90;;;;;;4968342;28;20049;-87
2023/09/27 02:15:34;;;;;;;2.00;1.90;;;14.80;99.90;;;;;;4972886;28;20104;-88
2023/09/27 02:18:00;;;;;;;1.98;1.88;;;14.90;99.90;;;;;;4965469;28;20097;-87
2023/09/27 02:20:26;;;;;;;2.60;2.50;;;14.80;99.90;;;;;;4973784;28;20042;-87
2023/09/27 02:22:54;;;;;;;2.08;1.98;;;14.90;99.90;;;;;;4971240;28;20098;-88
2023/09/27 02:25:20;;;;;;;2.10;2.00;;;14.90;99.90;;;;;;4973528;28;20042;-88
2023/09/27 02:27:46;;;;;;;2.00;1.90;;;15.10;99.90;;;;;;4958053;28;20049;-88
2023/09/27 02:30:12;;;;;;;2.30;2.20;;;15.10;99.90;;;;;;4964105;28;20074;-87
2023/09/27 02:32:42;;;;;;;2.30;2.20;;;15.20;99.90;;;;;;4977953;28;20088;-88
2023/09/27 02:35:09;;;;;;;2.05;1.95;;;15.00;99.90;;;;;;4956690;28;20462;-87
2023/09/27 02:37:36;;;;;;;2.13;2.03;;;15.00;99.90;;;;;;4969977;28;20049;-88
2023/09/27 02:40:11;;;;;;;1.98;1.88;;;15.00;99.90;;;;;;4973328;28;20483;-88
2023/09/27 02:42:49;;;;;;;2.00;1.90;;;15.00;99.90;;;;;;4965231;28;20049;-88
2023/09/27 02:45:14;;;;;;;2.20;2.10;;;15.00;99.90;;;;;;4954893;28;20061;-87
2023/09/27 02:47:45;;;;;;;2.25;2.15;;;14.90;99.90;;;;;;4956298;28;20392;-88
2023/09/27 02:50:12;;;;;;;2.10;2.00;;;14.80;99.90;;;;;;4975709;28;20042;-87
2023/09/27 02:52:40;;;;;;;2.25;2.15;;;14.70;99.90;;;;;;4972899;28;20500;-87
2023/09/27 02:55:08;;;;;;;2.00;1.90;;;14.50;99.90;;;;;;4965206;28;20046;-87
2023/09/27 02:57:34;;;;;;;2.00;1.90;;;14.40;99.90;;;;;;4972726;28;20546;-87
2023/09/27 03:00:00;;;;;;;2.00;1.90;;;14.30;99.90;;;;;;4968014;28;20070;-87
2023/09/27 03:02:26;;;;;;;2.20;2.10;;;14.20;99.90;;;;;;4973792;28;20495;-87
2023/09/27 03:04:52;;;;;;;2.05;1.95;;;14.10;99.90;;;;;;4963504;28;20054;-87
2023/09/27 03:07:18;;;;;;;2.03;1.92;;;14.30;99.90;;;;;;4963431;28;20117;-87
2023/09/27 03:09:47;;;;;;;2.20;2.10;;;14.30;99.90;;;;;;4960099;28;20066;-88
2023/09/27 03:12:13;;;;;;;2.30;2.20;;;14.30;99.90;;;;;;4971695;28;20053;-87
2023/09/27 03:14:38;;;;;;;2.00;1.90;;;14.20;99.90;;;;;;4953042;28;20038;-87
2023/09/27 03:17:04;;;;;;;2.30;2.20;;;14.10;99.90;;;;;;4977494;28;20053;-87
2023/09/27 03:19:30;;;;;;;2.20;2.10;;;14.00;99.90;;;;;;4969122;28;20062;-88
2023/09/27 03:21:56;;;;;;;2.10;2.00;;;14.10;99.90;;;;;;4959860;28;20038;-87
2023/09/27 03:24:22;;;;;;;2.20;2.10;;;14.20;99.90;;;;;;4948863;28;20472;-87
2023/09/27 03:26:47;;;;;;;2.10;2.00;;;14.10;99.90;;;;;;4970350;28;20046;-87
2023/09/27 03:29:13;;;;;;;2.17;2.08;;;13.90;99.90;;;;;;4956663;28;20046;-88
2023/09/27 03:31:39;;;;;;;2.20;2.10;;;14.10;99.90;;;;;;4961424;28;20546;-88
2023/09/27 03:34:05;;;;;;;2.20;2.10;;;14.10;99.90;;;;;;4960431;28;20741;-87
2023/09/27 03:36:30;;;;;;;2.30;2.20;;;14.00;99.90;;;;;;4981497;28;20050;-87
2023/09/27 03:38:56;;;;;;;2.20;2.10;;;13.90;99.90;;;;;;4968238;28;20049;-87
2023/09/27 03:41:22;;;;;;;2.20;2.10;;;14.00;99.90;;;;;;4980213;28;20065;-88
2023/09/27 03:43:50;;;;;;;2.28;2.17;;;14.00;99.90;;;;;;4959760;28;20041;-88
2023/09/27 03:46:15;;;;;;;2.30;2.20;;;13.70;99.90;;;;;;4959982;28;20092;-86
2023/09/27 03:48:41;;;;;;;2.20;2.10;;;13.60;99.90;;;;;;4969853;28;20446;-88
2023/09/27 03:51:07;;;;;;;2.30;2.20;;;13.80;99.90;;;;;;4961209;28;20046;-88
2023/09/27 03:53:33;;;;;;;2.20;2.10;;;13.80;99.90;;;;;;4971711;28;20054;-87
2023/09/27 03:55:59;;;;;;;2.30;2.20;;;13.80;99.90;;;;;;4971631;28;20048;-87
2023/09/27 03:58:25;;;;;;;2.30;2.20;;;14.00;99.90;;;;;;4982194;28;20528;-88
2023/09/27 04:00:50;;;;;;;2.35;2.25;;;13.80;99.90;;;;;;4961471;28;20042;-88
2023/09/27 04:03:16;;;;;;;2.28;2.17;;;13.50;99.90;;;;;;4965003;28;20041;-87
2023/09/27 04:05:42;;;;;;;2.30;2.20;;;13.50;99.90;;;;;;4971842;28;20053;-88
2023/09/27 04:08:08;;;;;;;2.38;2.28;;;13.70;99.90;;;;;;4961544;28;20502;-87
2023/09/27 04:10:34;;;;;;;2.40;2.30;;;13.50;99.90;;;;;;4976181;28;20522;-88
2023/09/27 04:12:59;;;;;;;2.40;2.30;;;13.70;99.90;;;;;;4977598;28;20061;-88
2023/09/27 04:15:26;;;;;;;2.33;2.22;;;13.70;99.90;;;;;;4982446;28;20042;-88
2023/09/27 04:17:51;;;;;;;2.42;2.33;;;13.70;99.90;;;;;;4964321;28;20054;-87
2023/09/27 04:20:18;;;;;;;2.38;2.28;;;13.70;99.90;;;;;;4979727;28;20046;-88
2023/09/27 04:22:47;;;;;;;2.20;2.10;;;13.70;99.90;;;;;;4974083;28;20501;-88
2023/09/27 04:25:14;;;;;;;2.25;2.15;;;13.60;99.90;;;;;;4977337;28;20111;-88
2023/09/27 04:27:46;;;;;;;2.28;2.17;;;13.80;99.90;;;;;;4958075;28;20038;-87
2023/09/27 04:30:18;;;;;;;2.30;2.20;;;13.60;99.90;;;;;;4959399;28;20136;-88
2023/09/27 04:32:46;;;;;;;2.30;2.20;;;13.60;99.90;;;;;;4976961;28;20180;-88
2023/09/27 04:35:13;;;;;;;2.30;2.20;;;13.90;99.90;;;;;;4975919;28;20046;-88
2023/09/27 04:37:39;;;;;;;2.25;2.15;;;13.80;99.90;;;;;;4961121;28;20133;-88
2023/09/27 04:40:11;;;;;;;2.25;2.15;;;13.70;99.90;;;;;;4974570;28;20043;-88
2023/09/27 04:42:39;;;;;;;2.30;2.20;;;13.90;99.90;;;;;;4976919;28;20447;-87
2023/09/27 04:45:06;;;;;;;2.28;2.17;;;14.10;99.90;;;;;;4950446;28;20069;-87
2023/09/27 04:47:32;;;;;;;2.05;1.95;;;14.00;99.90;;;;;;4977457;28;20050;-87
2023/09/27 04:49:58;;;;;;;2.10;2.00;;;13.90;99.90;;;;;;4979936;28;20045;-88
2023/09/27 04:52:24;;;;;;;2.20;2.10;;;14.10;99.90;;;;;;4978917;28;20523;-89
2023/09/27 04:54:56;;;;;;;2.20;2.10;;;14.00;99.90;;;;;;4974049;28;20077;-88
2023/09/27 04:57:23;;;;;;;2.30;2.20;;;13.90;99.90;;;;;;4952629;28;20035;-88
2023/09/27 04:59:50;;;;;;;2.30;2.20;;;13.80;99.90;;;;;;4964443;28;20457;-88
2023/09/27 05:02:16;;;;;;;2.22;2.13;;;13.90;99.90;;;;;;4967399;28;20049;-87
2023/09/27 05:04:42;;;;;;;2.40;2.30;;;13.90;99.90;;;;;;4963482;28;20498;-87
2023/09/27 05:07:09;;;;;;;2.40;2.30;;;13.80;99.90;;;;;;4952473;28;20085;-87
2023/09/27 05:09:34;;;;;;;2.30;2.20;;;13.70;99.90;;;;;;4959115;28;20112;-87
2023/09/27 05:12:00;;;;;;;2.30;2.20;;;13.50;99.90;;;;;;4981212;28;20046;-88
2023/09/27 05:14:25;;;;;;;2.20;2.10;;;13.70;99.90;;;;;;4967750;28;20046;-88
2023/09/27 05:16:51;;;;;;;2.38;2.28;;;13.60;99.90;;;;;;4976420;28;20056;-88
2023/09/27 05:19:17;;;;;;;2.38;2.28;;;13.30;99.90;;;;;;4978748;28;20052;-88
2023/09/27 05:21:43;;;;;;;2.25;2.15;;;13.40;99.90;;;;;;4978012;28;20101;-88
2023/09/27 05:24:09;;;;;;;2.30;2.20;;;13.40;99.90;;;;;;4957821;28;20054;-90
2023/09/27 05:26:34;;;;;;;2.15;2.05;;;13.30;99.90;;;;;;4949530;28;20412;-88
2023/09/27 05:29:02;;;;;;;2.10;2.00;;;13.40;99.90;;;;;;4957388;28;20077;-88
2023/09/27 05:31:28;;;;;;;2.35;2.25;;;13.30;99.90;;;;;;4961952;28;20483;-88
2023/09/27 05:33:54;;;;;;;2.20;2.10;;;13.30;99.90;;;;;;4958829;28;20057;-88
2023/09/27 05:36:19;;;;;;;2.30;2.20;;;13.20;99.90;;;;;;4974345;28;20049;-90
2023/09/27 05:38:46;;;;;;;2.33;2.22;;;13.30;99.90;;;;;;4978733;28;20047;-88
2023/09/27 05:41:11;;;;;;;2.20;2.10;;;13.50;99.90;;;;;;4976083;28;20628;-88
2023/09/27 05:43:37;;;;;;;2.40;2.30;;;13.40;99.90;;;;;;4977965;28;20053;-89
2023/09/27 05:46:03;;;;;;;2.20;2.10;;;13.70;99.90;;;;;;4976446;28;20109;-88
2023/09/27 05:48:30;;;;;;;2.28;2.17;;;13.50;99.90;;;;;;4979757;28;20128;-88
2023/09/27 05:50:56;;;;;;;2.40;2.30;;;13.70;99.90;;;;;;4965496;28;20055;-90
2023/09/27 05:53:22;;;;;;;2.25;2.15;;;13.50;99.90;;;;;;4966350;28;20050;-89
2023/09/27 05:55:48;;;;;;;2.25;2.15;;;13.30;99.90;;;;;;4995458;28;20109;-90
2023/09/27 05:58:14;;;;;;;2.20;2.10;;;13.30;99.90;;;;;;4956576;28;20046;-89
2023/09/27 06:00:46;;;;;;;2.40;2.30;;;13.40;99.90;;;;;;4976676;28;20042;-88
2023/09/27 06:03:15;;;;;;;2.30;2.20;;;13.50;99.90;;;;;;4977869;28;20091;-95
2023/09/27 06:05:41;;;;;;;1.98;1.88;;;13.60;99.90;;;;;;4967108;28;20069;-90
2023/09/27 06:08:07;;;;;;;2.20;2.10;;;13.40;99.90;;;;;;4959451;28;20042;-90
2023/09/27 06:10:33;;;;;;;2.30;2.20;;;13.60;99.90;;;;;;4979820;28;20118;-88
2023/09/27 06:13:11;;;;;;;1.98;1.88;;;13.60;99.90;;;;;;4959731;28;20049;-89
2023/09/27 06:15:37;;;;;;;2.30;2.20;;;13.70;99.90;;;;;;4973510;28;20047;-88
2023/09/27 06:18:03;;;;;;;2.25;2.15;;;14.00;99.90;;;;;;4964490;28;20050;-89
2023/09/27 06:20:30;;;;;;;2.40;2.30;;;13.80;99.90;;;;;;4967111;28;20448;-88
2023/09/27 06:22:58;;;;;;;2.50;2.40;;;14.00;99.90;;;;;;4975609;28;20116;-90
2023/09/27 06:25:28;;;;;;;2.60;2.50;;;13.80;99.90;;;;;;4984731;28;20125;-91
2023/09/27 06:27:57;;;;;;;2.40;2.30;;;13.80;99.90;;;;;;4971201;28;20650;-92
2023/09/27 06:30:23;;;;;;;2.10;2.00;;;14.20;99.90;;;;;;4961324;28;20130;-91
2023/09/27 06:32:49;;;;;;;2.03;1.92;;;14.20;99.90;;;;;;4963485;28;20074;-87
2023/09/27 06:35:15;;;;;;;2.13;2.03;;;14.30;99.90;;;;;;4983267;28;20064;-88
2023/09/27 06:37:43;;;;;;;2.50;2.40;;;14.50;99.90;;;;;;4962259;28;20495;-88
2023/09/27 06:40:16;;;;;;;2.80;2.60;;;14.40;99.90;;;;;;4966536;28;20503;-90
2023/09/27 06:42:46;;;;;;;2.90;2.70;;;14.30;99.90;;;;;;4976249;28;20698;-89
2023/09/27 06:45:13;;;;;;;2.80;2.60;;;14.40;99.90;;;;;;4967423;28;20124;-89
2023/09/27 06:47:41;;;;;;;2.90;2.70;;;14.70;99.90;;;;;;4969326;28;20044;-89
2023/09/27 06:50:10;;;;;;;2.83;2.63;;;14.60;99.90;;;;;;4982706;28;20128;-89
2023/09/27 06:52:43;;;;;;;2.72;2.58;;;14.70;99.90;;;;;;4980560;28;20045;-87
2023/09/27 06:55:13;;;;;;;2.75;2.58;;;14.60;99.90;;;;;;4983850;28;20046;-88
2023/09/27 06:57:42;;;;;;;2.80;2.60;;;14.80;99.90;;;;;;4961852;28;20100;-90
2023/09/27 07:00:24;;;;;;;2.90;2.70;;;14.70;99.90;;;;;;4982152;28;20046;-87
2023/09/27 07:02:53;;;;;;;3.00;2.80;;;14.90;99.90;;;;;;4979668;28;20053;-90
2023/09/27 07:05:23;;;;;;;2.80;2.60;;;15.10;99.90;;;;;;4964512;28;20627;-87
2023/09/27 07:07:53;;;;;;;2.80;2.60;;;14.90;99.90;;;;;;4981474;28;20103;-91
2023/09/27 07:10:19;;;;;;;2.60;2.50;;;15.00;99.90;;;;;;4974937;28;20193;-88
2023/09/27 07:12:46;;;;;;;2.60;2.50;;;15.00;99.90;;;;;;4973613;28;20119;-88
2023/09/27 07:15:13;;;;;;;2.50;2.40;;;15.20;99.90;;;;;;4978705;28;20049;-87
2023/09/27 07:17:47;;;;;;;2.45;2.35;;;15.10;99.90;;;;;;4981594;28;20078;-89
2023/09/27 07:20:33;;;;;;;2.65;2.53;;;15.30;99.90;;;;;;4982608;28;20073;-89
2023/09/27 07:22:59;;;;;;;2.58;2.47;;;15.30;99.90;;;;;;4981248;28;20054;-90
2023/09/27 07:25:26;;;;;;;2.38;2.28;;;15.50;99.90;;;;;;4984472;28;20679;-87
2023/09/27 07:28:07;;;;;;;2.20;2.10;;;15.30;99.90;;;;;;4977965;28;20055;-89
2023/09/27 07:30:37;;;;;;;2.50;2.40;;;15.70;99.90;;;;;;4966832;28;20056;-89
2023/09/27 07:33:08;;;;;;;2.88;2.67;;;15.90;99.90;;;;;;4962864;28;20447;-87
2023/09/27 07:35:35;;;;;;;1.42;1.38;;;16.10;99.90;;;;;;4984363;28;20144;-88
2023/09/27 07:38:01;;;;;;;1.63;1.52;;;16.50;99.90;;;;;;4987014;28;20582;-87
2023/09/27 07:40:27;;;;;;;1.75;1.65;;;16.60;99.90;;;;;;5000750;28;20049;-88
2023/09/27 07:42:53;;;;;;;2.97;2.78;;;16.70;99.90;;;;;;4972468;28;20601;-88
2023/09/27 07:45:22;;;;;;;2.50;2.40;;;16.80;99.90;;;;;;4983265;28;20073;-89
2023/09/27 07:47:53;;;;;;;2.58;2.47;;;16.80;99.90;;;;;;4984337;28;20052;-88
2023/09/27 07:50:27;;;;;;;2.50;2.40;;;17.00;99.90;;;;;;4984151;28;20054;-87
2023/09/27 07:52:59;;;;;;;2.53;2.42;;;16.90;99.90;;;;;;4983221;28;20053;-86
2023/09/27 07:55:26;;;;;;;2.65;2.53;;;16.80;99.90;;;;;;4968997;28;20129;-89
2023/09/27 07:57:52;;;;;;;2.33;2.22;;;17.00;99.90;;;;;;4985786;28;20050;-87
2023/09/27 08:00:25;;;;;;;2.33;2.22;;;17.00;99.90;;;;;;4985959;28;20034;-89
2023/09/27 08:02:55;;;;;;;2.27;2.17;;;17.20;99.90;;;;;;4972592;28;20050;-88
2023/09/27 08:05:22;;;;;;;2.25;2.15;;;17.20;99.90;;;;;;4978318;28;20388;-87
2023/09/27 08:07:48;;;;;;;2.22;2.13;;;17.30;99.90;;;;;;4969772;28;20061;-85
2023/09/27 08:10:15;;;;;;;2.30;2.20;;;17.40;99.90;;;;;;4968568;28;20058;-86
2023/09/27 08:12:42;;;;;;;2.10;2.00;;;17.40;99.90;;;;;;4969520;28;20046;-86
2023/09/27 08:15:09;;;;;;;2.30;2.20;;;17.40;99.90;;;;;;4978862;28;20049;-88
2023/09/27 08:17:35;;;;;;;2.20;2.10;;;17.40;99.90;;;;;;4960046;28;20504;-87
2023/09/27 08:20:11;;;;;;;2.38;2.28;;;17.50;99.90;;;;;;4965952;28;20054;-86
2023/09/27 08:22:39;;;;;;;2.25;2.15;;;17.50;99.90;;;;;;4968566;28;20717;-89
2023/09/27 08:25:14;;;;;;;2.30;2.20;;;17.60;99.90;;;;;;4964652;28;20046;-88
2023/09/27 08:27:41;;;;;;;2.10;2.00;;;17.70;99.90;;;;;;4998837;28;20038;-87
2023/09/27 08:30:09;;;;;;;1.45;1.38;;;17.90;99.90;;;;;;4985424;28;20214;-82
2023/09/27 08:32:36;;;;;;;1.60;1.50;;;18.10;99.90;;;;;;5002877;28;20050;-87
2023/09/27 08:35:05;;;;;;;1.20;1.20;;;18.30;99.90;;;;;;4987395;28;20137;-93
2023/09/27 08:37:31;;;;;;;1.20;1.20;;;18.40;99.90;;;;;;4987941;28;20053;-91
2023/09/27 08:39:57;;;;;;;1.38;1.38;;;18.40;99.90;;;;;;4965928;28;21395;-89
2023/09/27 08:42:24;;;;;;;1.25;1.25;;;18.30;99.90;;;;;;4985904;28;20132;-89
2023/09/27 08:44:52;;;;;;;1.27;1.27;;;18.30;99.90;;;;;;4987527;28;20108;-88
2023/09/27 08:47:19;;;;;;;1.13;1.13;;;18.20;99.90;;;;;;4983583;28;20043;-88
2023/09/27 08:49:49;;;;;;;0.95;0.95;;;18.20;99.90;;;;;;4987576;28;20450;-88
2023/09/27 08:52:20;;;;;;;0.90;0.90;;;18.30;99.90;;;;;;4965109;28;20046;-96
2023/09/27 08:54:46;;;;;;;0.90;0.90;;;18.70;99.90;;;;;;4985550;28;20088;-89
2023/09/27 08:57:12;;;;;;;0.80;0.80;;;18.90;99.90;;;;;;4966258;28;20054;-89
2023/09/27 08:59:39;;;;;;;0.80;0.80;;;19.10;99.90;;;;;;4971874;28;20049;-88
2023/09/27 09:02:09;;;;;;;0.80;0.80;;;19.20;99.90;;;;;;4964883;28;20409;-91
2023/09/27 09:04:36;;;;;;;0.77;0.77;;;19.30;99.90;;;;;;4970177;28;20042;-88
2023/09/27 09:07:03;;;;;;;0.80;0.80;;;19.60;99.90;;;;;;4965987;28;20794;-90
2023/09/27 09:09:30;;;;;;;0.80;0.80;;;19.70;99.90;;;;;;4985356;28;20042;-88
2023/09/27 09:11:58;;;;;;;0.90;0.90;;;19.70;99.90;;;;;;4983899;28;20046;-90
2023/09/27 09:14:38;;;;;;;0.80;0.80;;;19.70;99.90;;;;;;4972312;28;20116;-87
2023/09/27 09:17:03;;;;;;;0.88;0.88;;;20.10;99.90;;;;;;4965732;28;20161;-83
2023/09/27 09:19:31;;;;;;;1.05;1.05;;;19.90;99.90;;;;;;4982055;28;20571;-89
2023/09/27 09:22:02;;;;;;;0.95;0.95;;;20.10;99.90;;;;;;4984538;28;20100;-88
2023/09/27 09:24:43;;;;;;;1.05;1.05;;;20.40;99.90;;;;;;4970951;28;20118;-95
2023/09/27 09:27:16;;;;;;;1.00;1.00;;;20.90;99.90;;;;;;4968537;28;20464;-88
2023/09/27 09:29:53;;;;;;;1.00;1.00;;;21.40;99.90;;;;;;4983328;28;20042;-89
2023/09/27 09:32:21;;;;;;;0.82;0.82;;;21.60;99.90;;;;;;4969968;28;20043;-88
2023/09/27 09:34:59;;;;;;;0.90;0.90;;;21.60;99.90;;;;;;4966697;28;20062;-91
2023/09/27 09:37:29;;;;;;;0.77;0.77;;;22.00;99.90;;;;;;4972479;28;20483;-90
2023/09/27 09:40:15;;;;;;;0.93;0.93;;;22.30;99.90;;;;;;4966771;28;20455;-90
2023/09/27 09:42:42;;;;;;;0.90;0.90;;;22.30;99.90;;;;;;4977960;28;20066;-88
2023/09/27 09:45:12;;;;;;;0.85;0.85;;;22.50;99.90;;;;;;4984915;28;20046;-86
2023/09/27 09:47:46;;;;;;;0.82;0.82;;;22.70;99.90;;;;;;4983592;28;20852;-90
2023/09/27 09:50:16;;;;;;;0.90;0.90;;;23.00;99.90;;;;;;4967203;28;20046;-90
2023/09/27 09:52:57;;;;;;;0.88;0.88;;;22.90;99.90;;;;;;4968301;28;20082;-88
2023/09/27 09:55:29;;;;;;;1.30;1.30;;;22.80;99.90;;;;;;4997617;28;20050;-89
2023/09/27 09:58:06;;;;;;;1.15;1.15;;;22.80;99.90;;;;;;4981775;28;20139;-88
2023/09/27 10:00:35;;;;;;;0.95;0.95;;;22.70;99.90;;;;;;4970313;28;20104;-88
2023/09/27 10:03:03;;;;;;;1.10;1.10;;;22.60;99.90;;;;;;4977381;28;20122;-90
2023/09/27 10:05:39;;;;;;;0.93;0.93;;;22.50;99.90;;;;;;4969835;28;20077;-90
2023/09/27 10:08:06;;;;;;;1.17;1.17;;;22.40;99.90;;;;;;4967891;28;20045;-89
2023/09/27 10:10:33;;;;;;;0.70;0.70;;;22.50;99.90;;;;;;4981085;28;20355;-93
2023/09/27 10:13:00;;;;;;;0.82;0.82;;;22.60;99.90;;;;;;4964609;28;20045;-92
2023/09/27 10:15:27;;;;;;;0.30;0.30;;;22.40;99.90;;;;;;4970946;28;20042;-88
2023/09/27 10:18:13;;;;;;;0.82;0.82;;;22.90;99.90;;;;;;4983094;28;20062;-89
2023/09/27 10:21:05;;;;;;;0.88;0.88;;;22.60;99.90;;;;;;4970305;28;20042;-89
2023/09/27 10:23:35;;;;;;;0.85;0.85;;;22.40;99.90;;;;;;4969072;28;20502;-91
2023/09/27 10:26:31;;;;;;;0.75;0.75;;;22.40;99.90;;;;;;4965731;28;20057;-89
2023/09/27 10:29:03;;;;;;;0.98;0.98;;;22.70;99.90;;;;;;4968545;28;20076;-87
2023/09/27 10:31:37;;;;;;;0.98;0.98;;;22.20;99.90;;;;;;4984642;28;20046;-88
2023/09/27 10:34:29;;;;;;;0.98;0.98;;;22.20;99.90;;;;;;4968658;28;20153;-92
2023/09/27 10:37:02;;;;;;;0.77;0.77;;;22.20;99.90;;;;;;4965722;28;20550;-94
2023/09/27 10:39:28;;;;;;;1.05;1.05;;;22.30;99.90;;;;;;4973556;28;20042;-93
2023/09/27 10:41:54;;;;;;;0.95;0.95;;;22.20;99.90;;;;;;4967777;28;20281;-90
2023/09/27 10:44:33;;;;;;;0.90;0.90;;;22.00;99.90;;;;;;4966348;28;20552;-88
2023/09/27 10:47:03;;;;;;;0.80;0.80;;;22.50;99.90;;;;;;4959950;28;20580;-88
2023/09/27 10:49:38;;;;;;;0.93;0.93;;;22.70;99.90;;;;;;4980372;28;20046;-87
2023/09/27 10:52:17;;;;;;;1.42;1.38;;;22.50;99.90;;;;;;4966739;28;20419;-87
2023/09/27 10:54:44;;;;;;;0.77;0.77;;;22.80;99.90;;;;;;4984204;28;20050;-89
2023/09/27 10:57:09;;;;;;;1.40;1.35;;;23.00;99.90;;;;;;4984366;28;20425;-90
2023/09/27 10:59:35;;;;;;;1.58;1.48;;;23.10;99.90;;;;;;4982362;28;20050;-88
2023/09/27 11:02:07;;;;;;;1.42;1.38;;;23.00;99.90;;;;;;4978777;28;20043;-96
2023/09/27 11:04:35;;;;;;;1.45;1.38;;;22.70;99.90;;;;;;4985631;28;20054;-90
2023/09/27 11:07:00;;;;;;;1.48;1.38;;;22.40;99.90;;;;;;4967467;28;20046;-87
2023/09/27 11:09:27;;;;;;;0.80;0.80;;;22.30;99.90;;;;;;4984938;28;20503;-89
2023/09/27 11:11:54;;;;;;;0.85;0.85;;;22.40;99.90;;;;;;4969251;28;20061;-88
2023/09/27 11:14:33;;;;;;;0.80;0.80;;;22.90;99.90;;;;;;4988144;28;20060;-91
2023/09/27 11:17:21;;;;;;;0.80;0.80;;;22.90;99.90;;;;;;4983602;28;20647;-93
2023/09/27 11:20:15;;;;;;;0.88;0.88;;;23.50;99.90;;;;;;4972282;28;20427;-96
2023/09/27 11:22:42;;;;;;;0.82;0.82;;;23.20;99.90;;;;;;4986882;28;20049;-89
2023/09/27 11:25:36;;;;;;;0.82;0.82;;;23.10;99.90;;;;;;4969029;28;20038;-89
2023/09/27 11:28:02;;;;;;;0.90;0.90;;;23.50;99.90;;;;;;4984690;28;20415;-91
2023/09/27 11:30:34;;;;;;;1.10;1.00;;;23.30;99.90;;;;;;4986837;28;20708;-93
2023/09/27 11:33:06;;;;;;;0.82;0.82;;;23.00;99.90;;;;;;4973264;28;20076;-92
2023/09/27 11:35:32;;;;;;;0.90;0.90;;;22.90;99.90;;;;;;4975908;28;20059;-90
2023/09/27 11:38:05;;;;;;;0.95;0.95;;;23.10;99.90;;;;;;4987083;28;20050;-89
2023/09/27 11:40:35;;;;;;;0.82;0.82;;;22.60;99.90;;;;;;4991270;28;20407;-89
2023/09/27 11:43:02;;;;;;;0.80;0.80;;;22.90;99.90;;;;;;4999536;28;20057;-87
2023/09/27 11:45:27;;;;;;;0.85;0.85;;;22.80;99.90;;;;;;4991945;28;20510;-88
2023/09/27 11:47:53;;;;;;;0.77;0.77;;;23.00;99.90;;;;;;4988432;28;20050;-90
2023/09/27 11:50:19;;;;;;;0.85;0.85;;;23.00;99.90;;;;;;4968573;28;20564;-92
2023/09/27 11:52:49;;;;;;;0.80;0.80;;;23.00;99.90;;;;;;4971740;28;20479;-88
2023/09/27 11:55:16;;;;;;;0.80;0.80;;;22.90;99.90;;;;;;4985810;28;20050;-89
2023/09/27 11:57:42;;;;;;;0.90;0.90;;;22.70;99.90;;;;;;4982600;28;20068;-88
2023/09/27 12:00:09;;;;;;;0.75;0.75;;;22.70;99.90;;;;;;4979724;28;20637;-87
2023/09/27 12:02:35;;;;;;;0.80;0.80;;;23.30;99.90;;;;;;4984059;28;20132;-87
2023/09/27 12:05:04;;;;;;;0.70;0.70;;;23.30;99.90;;;;;;4988099;28;20057;-91
2023/09/27 12:07:30;;;;;;;0.80;0.80;;;23.30;99.90;;;;;;4987421;28;20568;-91
2023/09/27 12:09:56;;;;;;;0.77;0.77;;;23.20;99.90;;;;;;4985238;28;20050;-89
2023/09/27 12:12:22;;;;;;;0.80;0.80;;;23.20;99.90;;;;;;4986111;28;20054;-88
2023/09/27 12:14:49;;;;;;;0.90;0.90;;;23.20;99.90;;;;;;4985389;28;20049;-89
2023/09/27 12:17:15;;;;;;;0.80;0.80;;;23.10;99.90;;;;;;4987034;28;20046;-91
2023/09/27 12:19:42;;;;;;;0.80;0.80;;;22.90;99.90;;;;;;4970006;28;20522;-88
2023/09/27 12:22:08;;;;;;;0.85;0.85;;;22.90;99.90;;;;;;4985199;28;20053;-87
2023/09/27 12:24:34;;;;;;;0.98;0.98;;;22.80;99.90;;;;;;4985458;28;20045;-88
2023/09/27 12:26:59;;;;;;;0.93;0.93;;;22.60;99.90;;;;;;4973675;28;20372;-88
2023/09/27 12:29:25;;;;;;;0.90;0.90;;;22.60;99.90;;;;;;4986077;28;20046;-92
2023/09/27 12:31:51;;;;;;;0.90;0.90;;;22.60;99.90;;;;;;4976298;28;20121;-89
2023/09/27 12:34:16;;;;;;;0.90;0.90;;;22.70;99.90;;;;;;4969300;28;20070;-86
2023/09/27 12:36:42;;;;;;;1.00;1.00;;;23.00;99.90;;;;;;4987260;28;20045;-87
2023/09/27 12:39:08;;;;;;;1.08;1.08;;;23.30;99.90;;;;;;4982016;28;20050;-88
2023/09/27 12:41:34;;;;;;;0.98;0.98;;;23.50;99.90;;;;;;4986219;28;20050;-88
2023/09/27 12:44:00;;;;;;;0.80;0.80;;;23.70;99.90;;;;;;4985088;28;20076;-87
2023/09/27 12:46:26;;;;;;;0.70;0.70;;;23.40;99.90;;;;;;4983995;28;20070;-88
2023/09/27 12:48:51;;;;;;;0.80;0.80;;;23.60;99.90;;;;;;4978231;28;20085;-82
2023/09/27 12:51:17;;;;;;;0.93;0.93;;;23.60;99.90;;;;;;5004079;28;20403;-89
2023/09/27 12:53:43;;;;;;;0.80;0.80;;;23.50;99.90;;;;;;4985312;28;20058;-82